Time;durP1;ratioP1;P1;durP2;ratioP2;P2;SDS_P1;SDS_P2;PMS_P1;PMS_P2;Temp;Humidity;BMP_temperature;BMP_pressure;BME280_temperature;BME280_humidity;BME280_pressure;Samples;Min_cycle;Max_cycle;Signal;HPM_P1;HPM_P2
2022/02/14 02:14:06;;;;;;;19.90;10.10;;;;;;;3.81;100.00;102126.66;5988411;23;20030;31
2022/02/14 02:16:55;;;;;;;19.25;10.23;;;;;;;4.06;100.00;102121.44;4872835;29;20087;-71
2022/02/14 02:19:40;;;;;;;18.05;10.07;;;;;;;3.73;100.00;102121.25;4881505;29;20032;-70
2022/02/14 02:22:26;;;;;;;25.58;10.95;;;;;;;3.59;100.00;102121.63;4881628;29;20040;-72
2022/02/14 02:25:13;;;;;;;16.27;9.82;;;;;;;3.80;100.00;102123.22;4881156;29;20428;-71
2022/02/14 02:27:59;;;;;;;14.07;9.35;;;;;;;3.65;100.00;102127.00;4882064;29;20033;-71
2022/02/14 02:30:44;;;;;;;19.20;10.23;;;;;;;3.50;100.00;102126.50;4881785;29;20388;-71
2022/02/14 02:33:31;;;;;;;16.80;9.38;;;;;;;3.71;100.00;102124.63;4868601;29;20456;-72
2022/02/14 02:36:18;;;;;;;21.23;10.23;;;;;;;3.71;100.00;102119.44;4867884;29;20124;-72
2022/02/14 02:39:03;;;;;;;19.45;9.85;;;;;;;3.12;100.00;102127.78;4881853;29;20032;-71
2022/02/14 02:41:50;;;;;;;19.90;10.25;;;;;;;2.95;100.00;102122.84;4881998;29;20044;-72
2022/02/14 02:44:37;;;;;;;15.55;9.57;;;;;;;3.44;100.00;102115.94;4881255;29;20040;-71
2022/02/14 02:47:24;;;;;;;20.60;10.10;;;;;;;3.02;100.00;102111.91;4881307;29;20096;-71
2022/02/14 05:52:50;;;;;;;27.90;14.98;;;;;;;1.86;100.00;102111.78;4881324;29;20089;-71
2022/02/14 05:55:36;;;;;;;34.85;13.52;;;;;;;1.87;100.00;102111.84;4868018;29;20112;-72
2022/02/14 05:58:22;;;;;;;22.25;11.88;;;;;;;1.62;100.00;102113.41;4869621;29;20059;-71
2022/02/14 06:01:08;;;;;;;20.13;11.82;;;;;;;2.03;100.00;102113.31;4882210;29;20032;-71
2022/02/14 06:03:54;;;;;;;21.23;12.20;;;;;;;1.82;100.00;102123.72;4882361;29;20037;-71
2022/02/14 06:06:40;;;;;;;19.52;11.40;;;;;;;2.01;100.00;102126.19;4868760;29;20045;-73
2022/02/14 06:09:26;;;;;;;19.80;10.60;;;;;;;1.99;100.00;102130.44;4882418;29;20403;-71
2022/02/14 06:12:24;;;;;;;23.10;12.48;;;;;;;2.21;100.00;102127.84;4882231;29;20065;-71
2022/02/14 06:15:10;;;;;;;23.10;12.35;;;;;;;2.12;100.00;102124.91;4881967;29;20107;-71
2022/02/14 06:17:55;;;;;;;28.10;13.98;;;;;;;2.17;100.00;102130.25;4881796;29;20517;-71
2022/02/14 06:20:41;;;;;;;26.75;13.70;;;;;;;2.14;100.00;102131.03;4882852;29;20051;-71
2022/02/14 06:23:27;;;;;;;23.20;14.07;;;;;;;2.25;100.00;102137.47;4868901;29;20025;-70
2022/02/14 06:26:13;;;;;;;23.90;13.18;;;;;;;2.11;100.00;102141.25;4868565;29;20028;-71
2022/02/14 06:28:59;;;;;;;21.75;11.80;;;;;;;2.15;100.00;102131.91;4881861;29;20033;-72
2022/02/14 06:31:45;;;;;;;22.50;11.68;;;;;;;2.08;100.00;102135.06;4881685;29;20216;-71
2022/02/14 06:34:31;;;;;;;25.23;12.00;;;;;;;2.08;100.00;102140.22;4881845;29;20108;-70
2022/02/14 06:37:18;;;;;;;24.10;13.05;;;;;;;2.12;100.00;102127.50;4880711;29;20040;-71
2022/02/14 06:40:05;;;;;;;29.83;14.75;;;;;;;2.22;100.00;102134.78;4882110;29;20047;-71
2022/02/14 06:42:51;;;;;;;37.58;19.83;;;;;;;2.30;100.00;102133.38;4881623;29;20474;-70
2022/02/14 06:45:36;;;;;;;34.55;17.80;;;;;;;2.61;100.00;102127.66;4855906;29;20064;-71
2022/02/14 06:48:22;;;;;;;45.20;22.33;;;;;;;2.53;100.00;102126.50;4881413;29;20112;-70
2022/02/14 06:51:09;;;;;;;50.28;22.55;;;;;;;2.55;100.00;102124.81;4863884;29;20057;-71
2022/02/14 06:53:54;;;;;;;38.58;19.42;;;;;;;2.57;100.00;102125.78;4875843;29;20029;-71
2022/02/14 06:56:40;;;;;;;38.97;19.77;;;;;;;2.72;100.00;102128.91;4884142;29;20430;-71
2022/02/14 06:59:26;;;;;;;31.80;16.45;;;;;;;2.69;100.00;102131.41;4887233;29;20184;-71
2022/02/14 07:02:12;;;;;;;30.65;16.60;;;;;;;2.46;100.00;102125.38;4899104;29;20107;-71
2022/02/14 07:04:57;;;;;;;38.55;18.58;;;;;;;2.57;100.00;102120.59;4899509;29;20456;-71
2022/02/14 07:07:44;;;;;;;52.78;23.98;;;;;;;3.06;100.00;102119.81;4898733;29;20028;-72
2022/02/14 07:10:30;;;;;;;44.05;20.65;;;;;;;3.01;100.00;102113.59;4883985;29;20060;-71
2022/02/14 07:13:16;;;;;;;31.98;16.90;;;;;;;3.35;100.00;102124.28;4862280;29;20245;-71
2022/02/14 07:16:02;;;;;;;34.67;18.15;;;;;;;3.44;100.00;102127.19;4877013;29;20041;-72
2022/02/14 07:18:47;;;;;;;54.28;27.48;;;;;;;3.84;100.00;102127.66;4879853;29;20037;-72
2022/02/14 07:21:33;;;;;;;35.63;19.00;;;;;;;4.27;100.00;102111.72;4894002;29;20036;-72
2022/02/14 07:24:19;;;;;;;28.50;14.13;;;;;;;3.83;100.00;102118.13;4863505;29;20379;-71
2022/02/14 07:27:05;;;;;;;27.08;14.45;;;;;;;4.20;100.00;102104.56;4888071;29;20040;-71
2022/02/14 07:29:50;;;;;;;30.38;15.18;;;;;;;4.51;100.00;102107.25;4863510;29;20025;-71
2022/02/14 07:32:37;;;;;;;29.77;14.93;;;;;;;4.21;100.00;102106.31;4892144;29;20462;-72
2022/02/14 07:35:23;;;;;;;32.42;15.43;;;;;;;4.38;100.00;102099.94;4874251;29;20374;-72
2022/02/14 07:38:08;;;;;;;32.00;15.13;;;;;;;4.66;100.00;102103.38;4865572;29;20044;-71
2022/02/14 07:40:54;;;;;;;26.50;14.45;;;;;;;5.14;100.00;102107.31;4881084;29;20095;-73
2022/02/14 07:43:40;;;;;;;31.02;15.77;;;;;;;5.26;100.00;102105.03;4870351;29;20040;-71
2022/02/14 07:46:26;;;;;;;33.58;18.88;;;;;;;5.53;100.00;102110.03;4869406;29;20056;-72
2022/02/14 07:49:12;;;;;;;39.90;21.52;;;;;;;5.40;100.00;102103.66;4881866;29;20025;-73
2022/02/14 07:51:58;;;;;;;36.03;17.67;;;;;;;5.47;100.00;102103.81;4884431;29;20061;-71
2022/02/14 07:54:46;;;;;;;33.17;17.02;;;;;;;5.39;100.00;102111.44;4868134;29;20518;-72
2022/02/14 07:57:32;;;;;;;32.33;15.05;;;;;;;6.09;100.00;102101.00;4884339;29;20370;-72
2022/02/14 08:00:18;;;;;;;26.10;13.88;;;;;;;5.29;100.00;102105.13;4877019;29;20469;-72
2022/02/14 08:03:04;;;;;;;24.55;13.20;;;;;;;5.80;100.00;102104.63;4881830;29;20348;-71
2022/02/14 08:05:50;;;;;;;29.85;15.07;;;;;;;6.06;100.00;102103.56;4882245;29;20058;-73
2022/02/14 08:08:35;;;;;;;27.17;14.25;;;;;;;5.76;100.00;102095.91;4890377;29;20040;-72
2022/02/14 08:11:21;;;;;;;25.35;12.73;;;;;;;6.26;100.00;102094.47;4879735;29;20370;-72
2022/02/14 08:14:13;;;;;;;24.38;12.73;;;;;;;6.47;100.00;102093.19;4874395;29;20112;-72
2022/02/14 08:16:59;;;;;;;23.00;13.20;;;;;;;6.97;100.00;102089.00;4877698;29;20040;-72
2022/02/14 11:07:42;;;;;;;15.60;9.30;;;;;;;10.40;91.19;101936.94;5960904;23;20023;31
2022/02/14 11:10:29;;;;;;;15.98;8.63;;;;;;;10.18;91.89;101936.00;4852400;29;20068;-73
2022/02/14 11:13:17;;;;;;;13.98;8.20;;;;;;;10.36;87.46;101938.66;4856203;29;20146;-73
2022/02/14 11:16:03;;;;;;;10.98;6.70;;;;;;;10.06;88.04;101935.94;4842857;29;20033;-72
2022/02/14 11:18:51;;;;;;;17.02;9.07;;;;;;;9.79;88.62;101935.78;4855443;29;20383;-73
2022/02/14 11:21:41;;;;;;;13.77;7.55;;;;;;;9.74;87.79;101929.66;4855168;29;20478;-71
2022/02/14 11:24:30;;;;;;;18.75;8.35;;;;;;;9.76;88.86;101935.75;4855164;29;20049;-73
2022/02/14 11:27:23;;;;;;;11.52;7.63;;;;;;;10.04;87.73;101935.91;4856193;29;20034;-72
2022/02/14 11:30:12;;;;;;;13.57;8.43;;;;;;;10.12;85.58;101935.97;4842698;29;20513;-72
2022/02/14 11:33:19;;;;;;;11.75;6.88;;;;;;;10.24;84.48;101933.38;4855347;29;20033;-72
2022/02/14 11:36:08;;;;;;;10.18;6.65;;;;;;;10.41;79.88;101936.06;4855554;29;20052;-73
2022/02/14 11:39:03;;;;;;;10.88;6.80;;;;;;;10.77;77.78;101923.88;4854750;29;20093;-72
2022/02/14 11:41:49;;;;;;;15.82;7.22;;;;;;;10.62;77.24;101928.25;4842525;29;20379;-72
2022/02/14 11:44:35;;;;;;;11.57;6.32;;;;;;;10.80;76.72;101925.66;4856803;29;20084;-73
2022/02/14 11:47:22;;;;;;;11.27;6.30;;;;;;;11.22;72.55;101923.91;4854584;29;20068;-71
2022/02/14 11:50:54;;;;;;;11.80;6.18;;;;;;;11.59;69.10;101917.72;4843312;29;20025;-71
2022/02/14 11:53:45;;;;;;;8.63;5.50;;;;;;;11.55;63.37;101921.22;4847337;29;20121;-71
2022/02/14 11:56:32;;;;;;;12.88;5.63;;;;;;;11.47;63.44;101919.47;4855205;29;20037;-71
2022/02/14 11:59:27;;;;;;;10.95;6.03;;;;;;;10.87;68.79;101909.91;4853407;29;20451;-71
2022/02/14 12:02:13;;;;;;;10.55;5.95;;;;;;;10.66;70.22;101901.16;4853028;29;20089;-71
2022/02/14 12:04:59;;;;;;;14.32;6.57;;;;;;;10.86;67.42;101894.19;4855446;29;20037;-71
2022/02/14 12:07:53;;;;;;;13.85;6.35;;;;;;;10.50;67.71;101899.41;4840379;29;20085;-71
2022/02/14 12:10:46;;;;;;;15.18;6.97;;;;;;;10.54;68.94;101891.56;4856927;29;20523;-70
2022/02/14 12:13:35;;;;;;;13.43;7.03;;;;;;;10.60;67.33;101890.69;4855277;29;20045;-72
2022/02/14 12:22:53;;;;;;;10.10;6.05;;;;;;;10.77;65.85;101878.47;4853562;29;20352;-71
2022/02/14 12:25:50;;;;;;;11.30;5.88;;;;;;;10.89;63.47;101886.34;4855212;29;20117;-72
2022/02/14 12:28:38;;;;;;;11.85;6.03;;;;;;;10.56;64.34;101886.31;4854566;29;20037;-71
2022/02/14 12:31:23;;;;;;;9.00;5.70;;;;;;;10.52;64.15;101888.03;4855353;29;20440;-72
2022/02/14 12:34:09;;;;;;;12.93;6.25;;;;;;;10.51;63.05;101881.06;4856884;29;20025;-71
2022/02/14 12:36:59;;;;;;;9.60;5.63;;;;;;;10.57;61.52;101874.97;4854266;29;20052;-71
2022/02/14 12:39:50;;;;;;;10.05;5.50;;;;;;;9.94;62.67;101880.88;4855428;29;20119;-72
2022/02/14 12:42:36;;;;;;;8.05;4.90;;;;;;;10.41;62.04;101868.81;4842692;29;20053;-73
2022/02/14 17:00:57;;;;;;;56.45;31.08;;;;;;;8.84;85.33;101871.53;5961768;23;19999;31
2022/02/14 17:03:43;;;;;;;56.05;31.35;;;;;;;9.14;81.90;101874.38;4864414;29;19935;-72
2022/02/14 17:06:29;;;;;;;43.60;24.85;;;;;;;9.21;82.12;101873.53;4852780;29;20077;-72
2022/02/14 17:09:15;;;;;;;33.75;18.35;;;;;;;9.14;81.27;101876.97;4865150;29;20061;-73
2022/02/14 17:12:01;;;;;;;47.25;23.70;;;;;;;9.29;79.52;101871.84;4851869;29;20371;-73
2022/02/14 17:14:47;;;;;;;42.17;19.73;;;;;;;9.10;81.79;101878.72;4865717;29;20041;-73
2022/02/14 17:17:32;;;;;;;28.88;17.38;;;;;;;9.08;81.14;101872.56;4865055;29;20029;-73
2022/02/14 17:20:18;;;;;;;35.85;18.50;;;;;;;9.10;82.44;101872.59;4864500;29;20040;-71
2022/02/14 17:23:04;;;;;;;36.42;20.05;;;;;;;8.92;86.12;101872.47;4864754;29;20025;-74
2022/02/14 17:25:50;;;;;;;33.78;19.88;;;;;;;8.94;84.28;101869.00;4864428;29;20029;-72
2022/02/14 17:28:36;;;;;;;34.00;17.98;;;;;;;8.88;86.22;101862.88;4867135;29;20060;-71
2022/02/14 17:31:21;;;;;;;39.28;18.80;;;;;;;8.87;84.69;101877.66;4864602;29;20029;-72
2022/02/14 17:34:08;;;;;;;37.55;18.50;;;;;;;8.84;86.78;101868.94;4865158;29;20040;-71
2022/02/14 17:36:54;;;;;;;39.47;18.55;;;;;;;9.03;85.27;101868.19;4864446;29;20034;-72
2022/02/14 17:39:42;;;;;;;54.40;24.42;;;;;;;8.92;87.58;101869.88;4865047;29;20033;-73
2022/02/14 17:42:28;;;;;;;43.78;19.73;;;;;;;8.69;89.47;101872.25;4865007;29;20037;-72
2022/02/14 17:45:14;;;;;;;38.03;22.58;;;;;;;8.77;89.25;101867.13;4864973;29;20021;-72
2022/02/14 17:48:00;;;;;;;32.88;18.88;;;;;;;8.81;90.30;101874.13;4851514;29;20029;-73
2022/02/14 17:50:46;;;;;;;37.25;23.45;;;;;;;8.61;91.98;101870.47;4851213;29;20044;-71
2022/02/14 21:48:03;;;;;;;30.05;17.85;;;;;;;6.45;100.00;101808.53;5896217;23;20023;-71
2022/02/14 21:50:49;;;;;;;28.15;16.73;;;;;;;6.51;100.00;101807.78;4939886;29;20071;-72
2022/02/14 21:53:34;;;;;;;27.45;15.93;;;;;;;6.80;100.00;101809.09;4939558;29;20475;-72
2022/02/14 21:56:20;;;;;;;29.50;17.52;;;;;;;6.57;100.00;101807.84;4938865;29;20128;-72
2022/02/14 21:59:06;;;;;;;30.63;17.92;;;;;;;6.54;100.00;101808.69;4939432;29;20036;-72
2022/02/14 22:01:52;;;;;;;31.30;17.75;;;;;;;6.45;100.00;101810.25;4938989;29;20106;-71
2022/02/14 22:07:42;;;;;;;31.95;18.60;;;;;;;6.35;100.00;101813.56;4938700;29;20098;-72
2022/02/14 22:10:28;;;;;;;32.70;18.33;;;;;;;6.50;100.00;101813.81;4939720;29;20452;-72
2022/02/14 22:13:13;;;;;;;32.78;18.95;;;;;;;6.42;100.00;101813.69;4939080;29;20035;-72
